< < Back
Terminal Aerodrome Forecast


Current Version              Previous Versions:   1  2  3  4  5  6  7  8  9  

Terminal Aerodrome Forecast

310
FTUS42 KFFC 301700
TAFCSG
TAF
KCSG 301740Z 3018/3118 03005KT P6SM SKC
     FM302000 34006KT P6SM SKC
     FM310000 34003KT P6SM SKC
     FM311200 32004KT P6SM FEW120=

Latest METAR

954
SAUS70 KWBC 311000 RRD
MTRCSG
METAR KCSG 310951Z 34005KT 10SM CLR 09/04 A2994 RMK AO2 SLP138
T00940044


USA.gov is the U.S. government's official web portal to all federal, state and local government web resources and services.